createdAt,value
2022-09-22T00:01:32.000Z,6.58
2022-09-22T00:04:03.551Z,6.61
2022-09-22T00:06:33.484Z,6.62
2022-09-22T00:09:02.518Z,6.65
2022-09-22T00:11:36.037Z,6.62
2022-09-22T00:14:06.869Z,6.63
2022-09-22T00:16:37.303Z,6.66
2022-09-22T00:19:06.536Z,6.65
2022-09-22T00:21:34.419Z,6.59
2022-09-22T00:24:03.508Z,6.53
2022-09-22T00:26:32.674Z,6.51
2022-09-22T00:29:01.590Z,6.46
2022-09-22T00:31:30.705Z,6.58
2022-09-22T00:33:58.602Z,6.56
2022-09-22T00:36:27.894Z,6.50
2022-09-22T00:38:57.896Z,6.50
2022-09-22T00:41:27.809Z,6.48
2022-09-22T00:44:32.949Z,6.56
2022-09-22T00:47:06.806Z,6.56
2022-09-22T00:49:42.805Z,6.56
2022-09-22T00:52:12.123Z,6.42
2022-09-22T00:54:40.151Z,6.40
2022-09-22T00:57:09.148Z,6.41
2022-09-22T00:59:39.145Z,6.32
2022-09-22T01:02:07.842Z,6.31
2022-09-22T01:04:36.803Z,6.27
2022-09-22T01:07:05.945Z,6.19
2022-09-22T01:09:34.426Z,6.15
2022-09-22T01:12:03.786Z,6.11
2022-09-22T01:14:47.373Z,6.00
2022-09-22T01:17:28.850Z,6.05
2022-09-22T01:20:29.327Z,6.06
2022-09-22T01:23:24.429Z,6.07
2022-09-22T01:26:13.146Z,6.01
2022-09-22T01:29:04.300Z,5.96
2022-09-22T01:31:38.336Z,5.96
2022-09-22T01:34:12.262Z,6.12
2022-09-22T01:36:48.204Z,6.10
2022-09-22T01:39:20.609Z,5.98
2022-09-22T01:41:57.615Z,5.93
2022-09-22T01:44:32.173Z,5.88
2022-09-22T01:47:07.331Z,5.85
2022-09-22T01:49:40.855Z,5.87
2022-09-22T01:52:13.121Z,5.85
2022-09-22T01:54:45.641Z,5.87
2022-09-22T01:57:17.767Z,5.86
2022-09-22T01:59:51.635Z,5.83
2022-09-22T02:02:28.371Z,5.85
2022-09-22T02:05:00.429Z,5.78
2022-09-22T02:07:34.317Z,5.72
2022-09-22T02:10:08.020Z,5.70
2022-09-22T02:12:36.655Z,5.71
2022-09-22T02:15:05.062Z,5.63
2022-09-22T02:17:35.445Z,5.53
2022-09-22T02:20:06.168Z,5.56
2022-09-22T02:22:34.037Z,5.52
2022-09-22T02:25:01.943Z,5.62
2022-09-22T02:27:36.608Z,5.55
2022-09-22T02:30:09.705Z,5.50
2022-09-22T02:32:41.967Z,5.44
2022-09-22T02:35:10.817Z,5.44
2022-09-22T02:37:42.781Z,5.45
2022-09-22T02:40:19.808Z,5.40
2022-09-22T02:42:53.108Z,5.36
2022-09-22T02:45:27.175Z,5.33
2022-09-22T02:48:00.338Z,5.33
2022-09-22T02:50:30.718Z,5.28
2022-09-22T02:53:02.692Z,5.26
2022-09-22T02:55:31.073Z,5.24
2022-09-22T02:57:58.942Z,5.20
2022-09-22T03:00:26.804Z,5.19
2022-09-22T03:02:55.973Z,5.18
2022-09-22T03:05:23.804Z,5.17
2022-09-22T03:07:51.758Z,5.17
2022-09-22T03:10:19.587Z,5.13
2022-09-22T03:13:14.376Z,5.16
2022-09-22T03:15:36.886Z,5.07
2022-09-22T03:18:06.203Z,5.06
2022-09-22T03:20:34.076Z,5.04
2022-09-22T03:23:01.970Z,5.06
2022-09-22T03:25:29.802Z,5.07
2022-09-22T03:27:58.086Z,5.20
2022-09-22T03:30:26.015Z,5.21
2022-09-22T03:32:53.861Z,5.19
2022-09-22T03:35:23.187Z,5.23
2022-09-22T03:37:51.049Z,5.18
2022-09-22T03:40:19.175Z,5.14
2022-09-22T03:42:47.050Z,5.08
2022-09-22T03:45:15.543Z,5.11
2022-09-22T03:47:43.371Z,5.07
2022-09-22T03:50:11.575Z,5.00
2022-09-22T03:52:42.889Z,4.99
2022-09-22T03:55:11.431Z,4.99
2022-09-22T03:57:39.350Z,5.00
2022-09-22T04:00:08.653Z,5.07
2022-09-22T04:02:36.958Z,4.99
2022-09-22T04:05:05.135Z,4.94
2022-09-22T04:07:33.151Z,4.91
2022-09-22T04:10:02.621Z,4.89
2022-09-22T04:12:30.457Z,4.87
2022-09-22T04:14:58.283Z,4.89
2022-09-22T04:17:26.109Z,4.90
2022-09-22T04:19:55.155Z,4.92
2022-09-22T04:22:22.982Z,5.02
2022-09-22T04:24:50.836Z,4.96
2022-09-22T04:27:21.051Z,4.84
2022-09-22T04:29:49.549Z,4.91
2022-09-22T04:32:17.905Z,4.87
2022-09-22T04:34:46.287Z,4.91
2022-09-22T04:37:14.481Z,4.80
2022-09-22T04:39:42.406Z,4.77
2022-09-22T04:42:10.220Z,4.78
2022-09-22T04:44:39.531Z,4.77
2022-09-22T04:47:07.752Z,4.75
2022-09-22T04:49:35.577Z,4.71
2022-09-22T04:52:04.139Z,4.70
2022-09-22T04:54:32.394Z,4.74
2022-09-22T04:57:00.446Z,4.75
2022-09-22T04:59:29.497Z,4.84
2022-09-22T05:01:58.825Z,4.85
2022-09-22T05:04:26.745Z,4.86
2022-09-22T05:06:54.825Z,4.82
2022-09-22T05:09:22.867Z,4.77
2022-09-22T05:11:50.686Z,4.76
2022-09-22T05:14:22.759Z,4.78
2022-09-22T05:16:53.694Z,4.73
2022-09-22T05:19:22.898Z,4.71
2022-09-22T05:21:50.804Z,4.69
2022-09-22T05:24:18.674Z,4.70
2022-09-22T05:26:46.600Z,4.68
2022-09-22T05:29:14.846Z,4.79
2022-09-22T05:31:42.719Z,4.84
2022-09-22T05:34:10.571Z,4.83
2022-09-22T05:36:40.159Z,4.92
2022-09-22T05:39:08.018Z,4.93
2022-09-22T05:41:35.902Z,4.94
2022-09-22T05:44:03.778Z,4.98
2022-09-22T05:46:31.638Z,5.02
2022-09-22T05:48:59.510Z,5.04
2022-09-22T05:51:27.395Z,5.08
2022-09-22T05:53:56.702Z,5.14
2022-09-22T05:56:24.585Z,5.18
2022-09-22T05:58:52.714Z,5.26
2022-09-22T06:01:20.582Z,5.32
2022-09-22T06:03:48.547Z,5.43
2022-09-22T06:06:16.428Z,5.50
2022-09-22T06:08:48.728Z,5.60
2022-09-22T06:11:18.627Z,5.68
2022-09-22T06:13:46.529Z,5.76
2022-09-22T06:16:14.623Z,5.84
2022-09-22T06:18:42.388Z,5.95
2022-09-22T06:21:10.302Z,6.07
2022-09-22T06:23:42.607Z,6.16
2022-09-22T06:26:11.515Z,6.29
2022-09-22T06:28:40.706Z,6.44
2022-09-22T06:31:08.695Z,6.58
2022-09-22T06:33:36.595Z,6.74
2022-09-22T06:36:07.872Z,6.91
2022-09-22T06:38:35.825Z,7.09
2022-09-22T06:41:06.741Z,7.29
2022-09-22T06:43:37.772Z,7.48
2022-09-22T06:46:10.765Z,7.67
2022-09-22T06:48:39.000Z,7.84
2022-09-22T06:51:06.879Z,8.03
2022-09-22T06:53:34.701Z,8.38
2022-09-22T06:56:05.705Z,9.86
2022-09-22T06:58:52.352Z,11.88
2022-09-22T07:01:24.398Z,14.40
2022-09-22T07:03:52.504Z,16.08
2022-09-22T07:06:20.643Z,16.93
2022-09-22T07:08:49.962Z,18.03
2022-09-22T07:11:20.745Z,18.41
2022-09-22T07:13:48.728Z,18.68
2022-09-22T07:16:17.499Z,18.69
2022-09-22T07:18:48.312Z,19.60
2022-09-22T07:21:20.840Z,20.74
2022-09-22T07:23:50.194Z,20.23
2022-09-22T07:26:20.111Z,20.03
2022-09-22T07:28:50.267Z,20.11
2022-09-22T07:31:18.720Z,20.09
2022-09-22T07:33:48.044Z,19.88
2022-09-22T07:36:18.654Z,21.72
2022-09-22T07:38:49.315Z,21.47
2022-09-22T07:41:19.820Z,21.92
2022-09-22T07:43:53.222Z,20.31
2022-09-22T07:46:21.608Z,22.29
2022-09-22T07:48:50.981Z,22.99
2022-09-22T07:51:21.470Z,22.25
2022-09-22T07:53:51.363Z,22.15
2022-09-22T07:56:21.285Z,22.57
2022-09-22T07:58:50.924Z,23.59
2022-09-22T08:01:19.827Z,22.95
2022-09-22T08:03:47.764Z,23.11
2022-09-22T08:06:19.453Z,23.75
2022-09-22T08:08:52.300Z,24.27
2022-09-22T08:11:22.968Z,25.16
2022-09-22T08:13:53.506Z,27.16
2022-09-22T08:16:22.839Z,26.95
2022-09-22T08:18:56.047Z,24.97
2022-09-22T08:21:25.713Z,25.79
2022-09-22T08:23:56.494Z,25.27
2022-09-22T08:26:24.392Z,25.19
2022-09-22T08:28:52.810Z,25.24
2022-09-22T08:31:21.139Z,25.73
2022-09-22T08:33:50.130Z,27.66
2022-09-22T08:36:17.999Z,27.80
2022-09-22T08:38:49.296Z,27.93
2022-09-22T08:41:26.281Z,27.76
2022-09-22T08:43:57.364Z,29.85
2022-09-22T08:46:29.273Z,29.48
2022-09-22T08:49:21.464Z,28.69
2022-09-22T08:51:54.885Z,30.97
2022-09-22T08:54:28.145Z,29.90
2022-09-22T08:57:11.300Z,31.14
2022-09-22T08:59:44.729Z,30.85
2022-09-22T09:02:33.630Z,29.11
2022-09-22T09:05:46.558Z,30.03
2022-09-22T09:08:48.103Z,29.82
2022-09-22T09:11:31.738Z,29.90
2022-09-22T09:14:13.585Z,30.31
2022-09-22T09:16:48.045Z,30.61
2022-09-22T09:19:20.009Z,31.03
2022-09-22T09:21:52.528Z,29.55
2022-09-22T09:27:21.951Z,31.21
2022-09-22T09:30:00.276Z,31.73
2022-09-22T09:32:37.645Z,34.68
2022-09-22T09:35:07.171Z,35.76
2022-09-22T09:37:35.354Z,35.68
2022-09-22T09:40:05.761Z,34.49
2022-09-22T09:42:36.711Z,33.74
2022-09-22T09:45:05.651Z,33.85
2022-09-22T09:47:59.049Z,33.55
2022-09-22T09:50:31.910Z,33.52
2022-09-22T09:53:00.152Z,34.02
2022-09-22T09:55:28.414Z,36.31
2022-09-22T09:58:06.260Z,33.01
2022-09-22T10:00:35.038Z,35.32
2022-09-22T10:03:13.943Z,34.51
2022-09-22T10:05:43.417Z,33.37
2022-09-22T10:08:20.986Z,34.26
2022-09-22T10:10:49.284Z,35.28
2022-09-22T10:13:24.720Z,35.54
2022-09-22T10:16:22.207Z,35.88
2022-09-22T10:18:52.017Z,37.25
2022-09-22T10:21:22.024Z,36.83
2022-09-22T10:23:51.390Z,38.64
2022-09-22T10:26:26.218Z,36.67
2022-09-22T10:29:19.007Z,35.12
2022-09-22T10:32:05.239Z,34.14
2022-09-22T10:34:35.645Z,35.30
2022-09-22T10:37:10.515Z,35.62
2022-09-22T10:39:46.710Z,35.86
2022-09-22T10:42:34.186Z,38.61
2022-09-22T10:45:06.917Z,39.91
2022-09-22T10:47:55.351Z,32.56
2022-09-22T10:50:36.527Z,27.92
2022-09-22T10:53:21.829Z,23.99
2022-09-22T10:55:54.049Z,22.56
2022-09-22T10:58:40.627Z,22.22
2022-09-22T11:01:22.331Z,23.24
2022-09-22T11:04:09.512Z,24.13
2022-09-22T11:07:09.966Z,22.86
2022-09-22T11:10:01.221Z,26.76
2022-09-22T11:12:42.154Z,26.77
2022-09-22T11:15:24.162Z,28.43
2022-09-22T11:18:25.262Z,28.24
2022-09-22T11:21:03.095Z,27.73
2022-09-22T11:23:47.954Z,25.08
2022-09-22T11:26:33.542Z,26.22
2022-09-22T11:29:22.811Z,29.66
2022-09-22T11:31:58.769Z,33.05
2022-09-22T11:34:43.798Z,35.98
2022-09-22T11:37:27.808Z,39.58
2022-09-22T11:40:29.374Z,35.36
2022-09-22T11:43:09.189Z,36.17
2022-09-22T11:45:49.457Z,39.94
2022-09-22T11:48:33.788Z,34.85
2022-09-22T11:51:25.214Z,29.03
2022-09-22T11:54:16.569Z,30.91
2022-09-22T11:56:49.029Z,32.45
2022-09-22T11:59:33.883Z,34.06
2022-09-22T12:02:11.010Z,34.31
2022-09-22T12:04:43.562Z,31.85
2022-09-22T12:07:18.693Z,28.91
2022-09-22T12:09:53.076Z,31.88
2022-09-22T12:12:23.475Z,33.74
2022-09-22T12:14:59.069Z,35.38
2022-09-22T12:17:36.669Z,34.26
2022-09-22T12:20:16.952Z,35.94
2022-09-22T12:23:11.159Z,36.81
2022-09-22T12:25:48.988Z,34.50
2022-09-22T12:28:20.621Z,28.73
2022-09-22T12:31:07.006Z,26.06
2022-09-22T12:33:37.958Z,23.85
2022-09-22T12:36:06.734Z,26.34
2022-09-22T12:38:36.027Z,32.62
2022-09-22T12:41:04.649Z,36.81
2022-09-22T12:43:34.722Z,37.82
2022-09-22T12:46:06.783Z,36.61
2022-09-22T12:48:36.944Z,35.20
2022-09-22T12:51:32.439Z,35.20
2022-09-22T12:54:39.923Z,35.69
2022-09-22T12:57:47.379Z,31.95
2022-09-22T13:00:23.095Z,31.30
2022-09-22T13:02:51.363Z,33.07
2022-09-22T13:05:36.676Z,33.50
2022-09-22T13:08:05.245Z,32.42
2022-09-22T13:10:58.800Z,26.22
2022-09-22T13:13:44.347Z,25.81
2022-09-22T13:16:44.816Z,31.33
2022-09-22T13:19:13.008Z,29.80
2022-09-22T13:21:41.779Z,31.13
2022-09-22T13:24:23.638Z,31.80
2022-09-22T13:27:05.651Z,34.41
2022-09-22T13:29:34.343Z,34.28
2022-09-22T13:32:18.362Z,34.77
2022-09-22T13:34:47.373Z,30.90
2022-09-22T13:37:18.787Z,27.25
2022-09-22T13:39:50.793Z,26.61
2022-09-22T13:42:23.360Z,30.94
2022-09-22T13:44:58.019Z,30.81
2022-09-22T13:47:27.863Z,32.66
2022-09-22T13:49:58.452Z,30.89
2022-09-22T13:52:29.815Z,31.08
2022-09-22T13:55:00.731Z,31.45
2022-09-22T13:57:32.863Z,32.90
2022-09-22T14:00:01.910Z,32.96
2022-09-22T14:02:32.514Z,33.93
2022-09-22T14:05:03.773Z,34.99
2022-09-22T14:07:38.306Z,32.70
2022-09-22T14:10:19.205Z,32.50
2022-09-22T14:12:48.732Z,29.90
2022-09-22T14:15:43.282Z,25.17
2022-09-22T14:18:18.603Z,22.33
2022-09-22T14:20:47.446Z,21.78
2022-09-22T14:23:24.320Z,22.26
2022-09-22T14:25:52.573Z,21.61
2022-09-22T14:28:25.949Z,23.54
2022-09-22T14:30:54.516Z,25.86
2022-09-22T14:33:25.985Z,27.09
2022-09-22T14:36:01.772Z,26.54
2022-09-22T14:38:35.074Z,26.20
2022-09-22T14:41:03.137Z,24.61
2022-09-22T14:43:36.994Z,23.97
2022-09-22T14:46:23.190Z,23.07
2022-09-22T14:48:51.528Z,22.44
2022-09-22T14:51:22.956Z,21.70
2022-09-22T14:53:55.318Z,21.22
2022-09-22T14:56:27.730Z,21.09
2022-09-22T14:59:00.405Z,20.91
2022-09-22T15:01:49.583Z,20.55
2022-09-22T15:04:22.246Z,20.33
2022-09-22T15:06:51.748Z,20.08
2022-09-22T15:09:25.034Z,19.92
2022-09-22T15:11:54.779Z,19.78
2022-09-22T15:14:42.886Z,19.82
2022-09-22T15:17:54.829Z,19.52
2022-09-22T15:20:24.721Z,19.36
2022-09-22T15:22:53.970Z,19.34
2022-09-22T15:25:22.599Z,19.48
2022-09-22T15:27:53.406Z,19.54
2022-09-22T15:30:23.374Z,19.44
2022-09-22T15:32:51.421Z,19.42
2022-09-22T15:35:20.269Z,19.33
2022-09-22T15:37:50.555Z,19.29
2022-09-22T15:40:21.167Z,19.24
2022-09-22T15:43:11.366Z,19.13
2022-09-22T15:45:46.426Z,19.01
2022-09-22T15:48:22.437Z,18.93
2022-09-22T15:50:51.049Z,18.78
2022-09-22T15:53:19.010Z,18.66
2022-09-22T15:55:47.851Z,18.55
2022-09-22T15:58:18.412Z,18.37
2022-09-22T16:00:48.262Z,18.22
2022-09-22T16:03:22.149Z,18.04
2022-09-22T16:05:56.612Z,17.91
2022-09-22T16:08:28.708Z,17.83
2022-09-22T16:10:57.397Z,17.80
2022-09-22T16:13:26.001Z,17.77
2022-09-22T16:15:55.982Z,17.71
2022-09-22T16:18:23.919Z,17.60
2022-09-22T16:20:52.119Z,17.48
2022-09-22T16:23:20.308Z,17.43
2022-09-22T16:25:53.459Z,17.39
2022-09-22T16:28:21.433Z,17.22
2022-09-22T16:30:49.290Z,17.22
2022-09-22T16:33:18.324Z,17.24
2022-09-22T16:35:46.228Z,17.10
2022-09-22T16:38:14.309Z,17.03
2022-09-22T16:40:42.486Z,16.89
2022-09-22T16:43:10.871Z,16.77
2022-09-22T16:45:56.399Z,16.82
2022-09-22T16:48:25.866Z,16.61
2022-09-22T16:50:54.921Z,16.56
2022-09-22T16:53:22.932Z,16.57
2022-09-22T16:55:50.897Z,16.37
2022-09-22T16:58:20.099Z,16.23
2022-09-22T17:00:48.554Z,15.99
2022-09-22T17:03:18.778Z,15.78
2022-09-22T17:05:48.194Z,15.58
2022-09-22T17:08:21.882Z,15.39
2022-09-22T17:10:56.151Z,15.26
2022-09-22T17:13:27.911Z,15.07
2022-09-22T17:16:07.918Z,14.93
2022-09-22T17:18:41.881Z,14.70
2022-09-22T17:21:11.862Z,14.49
2022-09-22T17:23:40.479Z,14.40
2022-09-22T17:26:11.661Z,14.29
2022-09-22T17:28:40.784Z,14.13
2022-09-22T17:31:08.776Z,14.13
2022-09-22T17:33:46.924Z,14.02
2022-09-22T17:36:20.267Z,13.84
2022-09-22T17:38:50.626Z,13.65
2022-09-22T17:41:20.528Z,13.59
2022-09-22T17:43:51.911Z,13.68
2022-09-22T17:46:21.347Z,13.49
2022-09-22T17:49:06.989Z,13.42
2022-09-22T17:51:55.658Z,13.14
2022-09-22T17:54:42.919Z,13.02
2022-09-22T17:57:15.894Z,12.92
2022-09-22T17:59:43.884Z,12.89
2022-09-22T18:02:14.268Z,12.71
2022-09-22T18:04:43.003Z,12.70
2022-09-22T18:07:15.716Z,12.57
2022-09-22T18:09:43.776Z,12.38
2022-09-22T18:12:13.533Z,12.30
2022-09-22T18:14:43.406Z,12.15
2022-09-22T18:17:12.739Z,12.20
2022-09-22T18:19:42.944Z,12.17
2022-09-22T18:22:16.727Z,12.04
2022-09-22T18:24:45.270Z,11.98
2022-09-22T18:27:13.193Z,11.92
2022-09-22T18:29:41.099Z,11.94
2022-09-22T18:32:09.155Z,11.93
2022-09-22T18:34:37.537Z,11.88
2022-09-22T18:37:06.081Z,11.80
2022-09-22T18:39:35.520Z,11.65
2022-09-22T18:42:04.752Z,11.57
2022-09-22T18:44:34.513Z,11.46
2022-09-22T18:47:02.807Z,11.36
2022-09-22T18:49:33.117Z,11.29
2022-09-22T18:52:02.483Z,11.19
2022-09-22T18:54:31.194Z,11.16
2022-09-22T18:57:03.423Z,11.17
2022-09-22T18:59:31.405Z,11.26
2022-09-22T19:01:59.942Z,11.11
2022-09-22T19:04:28.044Z,10.97
2022-09-22T19:07:13.769Z,10.82
2022-09-22T19:09:42.055Z,10.72
2022-09-22T19:12:12.127Z,10.70
2022-09-22T19:14:41.663Z,10.68
2022-09-22T19:17:11.524Z,10.62
2022-09-22T19:19:42.242Z,10.57
2022-09-22T19:22:12.068Z,10.49
2022-09-22T19:24:45.991Z,10.43
2022-09-22T19:27:19.003Z,10.52
2022-09-22T19:29:46.984Z,10.42
2022-09-22T19:32:14.861Z,10.38
2022-09-22T19:34:42.731Z,10.34
2022-09-22T19:37:10.625Z,10.33
2022-09-22T19:39:38.929Z,10.27
2022-09-22T19:42:07.072Z,10.38
2022-09-22T19:44:36.137Z,10.38
2022-09-22T19:47:03.990Z,10.42
2022-09-22T19:49:31.919Z,10.33
2022-09-22T19:51:59.839Z,10.21
2022-09-22T19:54:27.813Z,10.29
2022-09-22T19:56:55.688Z,10.12
2022-09-22T19:59:23.561Z,10.05
2022-09-22T20:01:54.931Z,10.20
2022-09-22T20:04:23.422Z,10.06
2022-09-22T20:06:51.294Z,9.98
2022-09-22T20:09:19.237Z,9.88
2022-09-22T20:11:50.259Z,9.92
2022-09-22T20:14:20.859Z,9.87
2022-09-22T20:16:50.327Z,9.91
2022-09-22T20:19:20.274Z,9.75
2022-09-22T20:21:49.566Z,9.82
2022-09-22T20:24:19.597Z,9.69
2022-09-22T20:26:48.270Z,9.73
2022-09-22T20:29:17.203Z,9.67
2022-09-22T20:31:45.751Z,9.67
2022-09-22T20:34:15.910Z,9.59
2022-09-22T20:36:45.177Z,9.47
2022-09-22T20:39:15.209Z,9.55
2022-09-22T20:41:44.309Z,9.43
2022-09-22T20:44:14.692Z,9.47
2022-09-22T20:46:43.361Z,9.59
2022-09-22T20:49:13.211Z,9.49
2022-09-22T20:51:41.077Z,9.37
2022-09-22T20:54:10.674Z,9.31
2022-09-22T20:56:42.702Z,9.29
2022-09-22T20:59:11.317Z,9.27
2022-09-22T21:01:39.264Z,9.17
2022-09-22T21:04:07.241Z,9.15
2022-09-22T21:06:35.225Z,9.06
2022-09-22T21:09:20.819Z,9.06
2022-09-22T21:11:50.332Z,8.99
2022-09-22T21:14:18.173Z,9.01
2022-09-22T21:16:49.316Z,9.04
2022-09-22T21:19:17.162Z,9.14
2022-09-22T21:21:45.614Z,9.15
2022-09-22T21:24:14.259Z,9.30
2022-09-22T21:26:42.230Z,9.18
2022-09-22T21:29:11.460Z,9.22
2022-09-22T21:31:39.321Z,9.14
2022-09-22T21:34:07.270Z,9.20
2022-09-22T21:36:35.200Z,9.24
2022-09-22T21:39:03.069Z,9.14
2022-09-22T21:41:32.231Z,9.05
2022-09-22T21:44:00.366Z,9.11
2022-09-22T21:46:30.118Z,9.30
2022-09-22T21:49:01.355Z,9.31
2022-09-22T21:51:31.003Z,9.30
2022-09-22T21:53:58.898Z,9.29
2022-09-22T21:56:26.812Z,9.11
2022-09-22T21:58:55.855Z,9.03
2022-09-22T22:01:25.785Z,8.92
2022-09-22T22:03:56.829Z,8.81
2022-09-22T22:06:26.309Z,8.72
2022-09-22T22:09:00.750Z,8.63
2022-09-22T22:11:31.123Z,8.65
2022-09-22T22:14:01.192Z,8.67
2022-09-22T22:16:32.087Z,8.68
2022-09-22T22:19:01.423Z,8.71
2022-09-22T22:21:30.713Z,8.77
2022-09-22T22:24:21.822Z,8.62
2022-09-22T22:26:51.680Z,8.66
2022-09-22T22:29:20.872Z,8.68
2022-09-22T22:31:49.961Z,8.72
2022-09-22T22:34:20.721Z,8.71
2022-09-22T22:36:48.602Z,8.63
2022-09-22T22:39:17.275Z,8.61
2022-09-22T22:41:45.399Z,8.75
2022-09-22T22:44:13.219Z,8.64
2022-09-22T22:46:41.095Z,8.49
2022-09-22T22:49:09.070Z,8.53
2022-09-22T22:51:39.880Z,8.43
2022-09-22T22:54:07.998Z,8.50
2022-09-22T22:56:38.698Z,8.51
2022-09-22T22:59:09.001Z,8.41
2022-09-22T23:01:37.343Z,8.35
2022-09-22T23:04:07.495Z,8.35
2022-09-22T23:06:39.438Z,8.30
2022-09-22T23:09:11.142Z,8.29
2022-09-22T23:11:40.696Z,8.27
2022-09-22T23:14:25.998Z,8.30
2022-09-22T23:16:54.101Z,8.27
2022-09-22T23:19:21.872Z,8.30
2022-09-22T23:21:51.467Z,8.34
2022-09-22T23:24:19.565Z,8.33
2022-09-22T23:26:48.178Z,8.33
2022-09-22T23:29:16.146Z,8.36
2022-09-22T23:31:44.257Z,8.31
2022-09-22T23:34:12.033Z,8.31
2022-09-22T23:36:40.608Z,8.23
2022-09-22T23:39:12.481Z,8.29
2022-09-22T23:41:40.436Z,8.31
2022-09-22T23:44:08.417Z,8.25
2022-09-22T23:46:38.209Z,8.22
2022-09-22T23:49:06.722Z,8.27
2022-09-22T23:51:34.635Z,8.21
2022-09-22T23:54:02.417Z,8.27
2022-09-22T23:56:31.608Z,8.23
2022-09-22T23:58:59.357Z,8.18
